Gormania, West Virginia
Current Conditions -  °F | °C
As of 1:05 PM on Monday 24 Nov 2014 (Local Time) from K2G4 Reporting Station
Scattered Clouds Scattered Clouds  
Wind Chill: 61°   Ceiling: Unl
Heat Index: 61°   Visibility: 10mi
Dew Point: 32°   Wind: 16mph
Humidity: 34%   Direction: 230°SW
Pressure: 29.54"   Gusts: 30mph
Location:  39.29°N, 79.34°W
Report Text: K2G4 241805Z AUTO 23014G26KT 10SM SCT055 SCT065 16/00 A2954 RMK AO1
Loading
Personal Weather Stations






























Interactive Weather Map New forecast layout! Learn more

10-Day Weather Forecast

Advertisements
Track Severe Weather on mobile